sensor_id;sensor_type;location;lat;lon;timestamp;temperature;humidity
3602;DHT22;1815;50.950;6.920;2022-09-09T00:02:27;20.70;99.90
3602;DHT22;1815;50.950;6.920;2022-09-09T00:05:00;20.60;99.90
3602;DHT22;1815;50.950;6.920;2022-09-09T00:12:54;20.50;99.90
3602;DHT22;1815;50.950;6.920;2022-09-09T00:18:48;20.50;99.90
3602;DHT22;1815;50.950;6.920;2022-09-09T00:21:17;20.40;99.90
3602;DHT22;1815;50.950;6.920;2022-09-09T00:23:50;20.40;99.90
3602;DHT22;1815;50.950;6.920;2022-09-09T00:29:16;20.30;99.90
3602;DHT22;1815;50.950;6.920;2022-09-09T00:31:44;20.20;99.90
3602;DHT22;1815;50.950;6.920;2022-09-09T00:34:20;20.20;99.90
3602;DHT22;1815;50.950;6.920;2022-09-09T00:36:49;20.20;99.90
3602;DHT22;1815;50.950;6.920;2022-09-09T00:42:03;20.20;99.90
3602;DHT22;1815;50.950;6.920;2022-09-09T00:44:38;20.20;99.90
3602;DHT22;1815;50.950;6.920;2022-09-09T00:47:45;20.30;99.90
3602;DHT22;1815;50.950;6.920;2022-09-09T00:50:17;20.20;99.90
3602;DHT22;1815;50.950;6.920;2022-09-09T00:55:54;20.30;99.90
3602;DHT22;1815;50.950;6.920;2022-09-09T00:58:21;20.30;99.90
3602;DHT22;1815;50.950;6.920;2022-09-09T01:00:55;20.30;99.90
3602;DHT22;1815;50.950;6.920;2022-09-09T01:03:35;20.30;99.90
3602;DHT22;1815;50.950;6.920;2022-09-09T01:20:24;20.10;99.90
3602;DHT22;1815;50.950;6.920;2022-09-09T01:26:16;20.00;99.90
3602;DHT22;1815;50.950;6.920;2022-09-09T01:28:49;20.00;99.90
3602;DHT22;1815;50.950;6.920;2022-09-09T01:31:23;19.90;99.90
3602;DHT22;1815;50.950;6.920;2022-09-09T01:33:51;19.80;99.90
3602;DHT22;1815;50.950;6.920;2022-09-09T01:36:29;19.80;99.90
3602;DHT22;1815;50.950;6.920;2022-09-09T01:39:00;19.80;99.90
3602;DHT22;1815;50.950;6.920;2022-09-09T01:41:27;19.70;99.90
3602;DHT22;1815;50.950;6.920;2022-09-09T01:44:00;19.70;99.90
3602;DHT22;1815;50.950;6.920;2022-09-09T01:46:29;19.60;99.90
3602;DHT22;1815;50.950;6.920;2022-09-09T01:48:57;19.60;99.90
3602;DHT22;1815;50.950;6.920;2022-09-09T01:51:24;19.60;99.90
3602;DHT22;1815;50.950;6.920;2022-09-09T01:53:52;19.60;99.90
3602;DHT22;1815;50.950;6.920;2022-09-09T02:01:39;19.50;99.90
3602;DHT22;1815;50.950;6.920;2022-09-09T02:04:50;19.50;99.90
3602;DHT22;1815;50.950;6.920;2022-09-09T02:10:24;19.50;99.90
3602;DHT22;1815;50.950;6.920;2022-09-09T02:13:15;19.50;99.90
3602;DHT22;1815;50.950;6.920;2022-09-09T02:18:38;19.60;99.90
3602;DHT22;1815;50.950;6.920;2022-09-09T02:21:07;19.60;99.90
3602;DHT22;1815;50.950;6.920;2022-09-09T02:23:34;19.60;99.90
3602;DHT22;1815;50.950;6.920;2022-09-09T02:26:04;19.60;99.90
3602;DHT22;1815;50.950;6.920;2022-09-09T02:28:33;19.60;99.90
3602;DHT22;1815;50.950;6.920;2022-09-09T02:30:59;19.70;99.90
3602;DHT22;1815;50.950;6.920;2022-09-09T02:33:37;19.70;99.90
3602;DHT22;1815;50.950;6.920;2022-09-09T02:36:04;19.70;99.90
3602;DHT22;1815;50.950;6.920;2022-09-09T02:38:35;19.80;99.90
3602;DHT22;1815;50.950;6.920;2022-09-09T02:41:08;19.70;99.90
3602;DHT22;1815;50.950;6.920;2022-09-09T02:43:35;19.70;99.90
3602;DHT22;1815;50.950;6.920;2022-09-09T02:46:46;19.80;99.90
3602;DHT22;1815;50.950;6.920;2022-09-09T02:49:28;19.70;99.90
3602;DHT22;1815;50.950;6.920;2022-09-09T02:52:18;19.70;99.90
3602;DHT22;1815;50.950;6.920;2022-09-09T02:54:45;19.70;99.90
3602;DHT22;1815;50.950;6.920;2022-09-09T02:57:17;19.70;99.90
3602;DHT22;1815;50.950;6.920;2022-09-09T02:59:47;19.70;99.90
3602;DHT22;1815;50.950;6.920;2022-09-09T03:02:13;19.70;99.90
3602;DHT22;1815;50.950;6.920;2022-09-09T03:04:41;19.60;99.90
3602;DHT22;1815;50.950;6.920;2022-09-09T03:07:11;19.60;99.90
3602;DHT22;1815;50.950;6.920;2022-09-09T03:09:38;19.60;99.90
3602;DHT22;1815;50.950;6.920;2022-09-09T03:12:03;19.60;99.90
3602;DHT22;1815;50.950;6.920;2022-09-09T03:14:32;19.60;99.90
3602;DHT22;1815;50.950;6.920;2022-09-09T03:16:57;19.70;99.90
3602;DHT22;1815;50.950;6.920;2022-09-09T03:19:28;19.70;99.90
3602;DHT22;1815;50.950;6.920;2022-09-09T03:21:55;19.70;99.90
3602;DHT22;1815;50.950;6.920;2022-09-09T03:24:22;19.70;99.90
3602;DHT22;1815;50.950;6.920;2022-09-09T03:26:48;19.70;99.90
3602;DHT22;1815;50.950;6.920;2022-09-09T03:29:17;19.70;99.90
3602;DHT22;1815;50.950;6.920;2022-09-09T03:31:44;19.70;99.90
3602;DHT22;1815;50.950;6.920;2022-09-09T03:34:11;19.70;99.90
3602;DHT22;1815;50.950;6.920;2022-09-09T03:36:37;19.70;99.90
3602;DHT22;1815;50.950;6.920;2022-09-09T03:39:04;19.70;99.90
3602;DHT22;1815;50.950;6.920;2022-09-09T03:41:30;19.70;99.90
3602;DHT22;1815;50.950;6.920;2022-09-09T03:43:58;19.80;99.90
3602;DHT22;1815;50.950;6.920;2022-09-09T03:46:26;19.80;99.90
3602;DHT22;1815;50.950;6.920;2022-09-09T03:48:53;19.80;99.90
3602;DHT22;1815;50.950;6.920;2022-09-09T03:51:19;19.80;99.90
3602;DHT22;1815;50.950;6.920;2022-09-09T03:53:46;19.80;99.90
3602;DHT22;1815;50.950;6.920;2022-09-09T03:56:12;19.70;99.90
3602;DHT22;1815;50.950;6.920;2022-09-09T03:58:38;19.80;99.90
3602;DHT22;1815;50.950;6.920;2022-09-09T04:01:09;19.80;99.90
3602;DHT22;1815;50.950;6.920;2022-09-09T04:03:36;19.80;99.90
3602;DHT22;1815;50.950;6.920;2022-09-09T04:06:04;19.80;99.90
3602;DHT22;1815;50.950;6.920;2022-09-09T04:08:31;19.80;99.90
3602;DHT22;1815;50.950;6.920;2022-09-09T04:10:58;19.80;99.90
3602;DHT22;1815;50.950;6.920;2022-09-09T04:13:27;19.80;99.90
3602;DHT22;1815;50.950;6.920;2022-09-09T04:15:56;19.80;99.90
3602;DHT22;1815;50.950;6.920;2022-09-09T04:18:23;19.70;99.90
3602;DHT22;1815;50.950;6.920;2022-09-09T04:20:50;19.70;99.90
3602;DHT22;1815;50.950;6.920;2022-09-09T04:23:19;19.70;99.90
3602;DHT22;1815;50.950;6.920;2022-09-09T04:25:47;19.70;99.90
3602;DHT22;1815;50.950;6.920;2022-09-09T04:28:15;19.60;99.90
3602;DHT22;1815;50.950;6.920;2022-09-09T04:30:42;19.60;99.90
3602;DHT22;1815;50.950;6.920;2022-09-09T04:33:09;19.60;99.90
3602;DHT22;1815;50.950;6.920;2022-09-09T04:35:36;19.60;99.90
3602;DHT22;1815;50.950;6.920;2022-09-09T04:38:02;19.70;99.90
3602;DHT22;1815;50.950;6.920;2022-09-09T04:40:31;19.70;99.90
3602;DHT22;1815;50.950;6.920;2022-09-09T04:43:01;19.70;99.90
3602;DHT22;1815;50.950;6.920;2022-09-09T04:45:28;19.70;99.90
3602;DHT22;1815;50.950;6.920;2022-09-09T04:47:55;19.70;99.90
3602;DHT22;1815;50.950;6.920;2022-09-09T04:50:21;19.70;99.90
3602;DHT22;1815;50.950;6.920;2022-09-09T04:52:47;19.70;99.90
3602;DHT22;1815;50.950;6.920;2022-09-09T04:55:14;19.80;99.90
3602;DHT22;1815;50.950;6.920;2022-09-09T04:57:43;19.70;99.90
3602;DHT22;1815;50.950;6.920;2022-09-09T05:00:11;19.80;99.90
3602;DHT22;1815;50.950;6.920;2022-09-09T05:02:40;19.80;99.90
3602;DHT22;1815;50.950;6.920;2022-09-09T05:05:08;19.90;99.90
3602;DHT22;1815;50.950;6.920;2022-09-09T05:07:34;19.90;99.90
3602;DHT22;1815;50.950;6.920;2022-09-09T05:10:00;19.90;99.90
3602;DHT22;1815;50.950;6.920;2022-09-09T05:12:26;19.80;99.90
3602;DHT22;1815;50.950;6.920;2022-09-09T05:14:52;19.80;99.90
3602;DHT22;1815;50.950;6.920;2022-09-09T05:17:18;19.80;99.90
3602;DHT22;1815;50.950;6.920;2022-09-09T05:19:44;19.80;99.90
3602;DHT22;1815;50.950;6.920;2022-09-09T05:22:11;19.80;99.90
3602;DHT22;1815;50.950;6.920;2022-09-09T05:24:42;19.80;99.90
3602;DHT22;1815;50.950;6.920;2022-09-09T05:27:08;19.80;99.90
3602;DHT22;1815;50.950;6.920;2022-09-09T05:29:38;19.80;99.90
3602;DHT22;1815;50.950;6.920;2022-09-09T05:32:06;19.80;99.90
3602;DHT22;1815;50.950;6.920;2022-09-09T05:34:32;19.80;99.90
3602;DHT22;1815;50.950;6.920;2022-09-09T05:36:58;19.80;99.90
3602;DHT22;1815;50.950;6.920;2022-09-09T05:39:24;19.80;99.90
3602;DHT22;1815;50.950;6.920;2022-09-09T05:41:50;19.70;99.90
3602;DHT22;1815;50.950;6.920;2022-09-09T05:44:16;19.70;99.90
3602;DHT22;1815;50.950;6.920;2022-09-09T05:46:43;19.70;99.90
3602;DHT22;1815;50.950;6.920;2022-09-09T05:49:11;19.70;99.90
3602;DHT22;1815;50.950;6.920;2022-09-09T05:51:39;19.70;99.90
3602;DHT22;1815;50.950;6.920;2022-09-09T05:54:10;19.70;99.90
3602;DHT22;1815;50.950;6.920;2022-09-09T05:56:41;19.70;99.90
3602;DHT22;1815;50.950;6.920;2022-09-09T05:59:07;19.70;99.90
3602;DHT22;1815;50.950;6.920;2022-09-09T06:01:35;19.80;99.90
3602;DHT22;1815;50.950;6.920;2022-09-09T06:04:02;19.80;99.90
3602;DHT22;1815;50.950;6.920;2022-09-09T06:06:32;19.80;99.90
3602;DHT22;1815;50.950;6.920;2022-09-09T06:09:05;19.90;99.90
3602;DHT22;1815;50.950;6.920;2022-09-09T06:11:37;20.00;99.90
3602;DHT22;1815;50.950;6.920;2022-09-09T06:14:05;20.00;99.90
3602;DHT22;1815;50.950;6.920;2022-09-09T06:16:32;20.10;99.90
3602;DHT22;1815;50.950;6.920;2022-09-09T06:18:59;20.20;99.90
3602;DHT22;1815;50.950;6.920;2022-09-09T06:21:31;20.30;99.90
3602;DHT22;1815;50.950;6.920;2022-09-09T06:24:03;20.30;99.90
3602;DHT22;1815;50.950;6.920;2022-09-09T06:26:31;20.40;99.90
3602;DHT22;1815;50.950;6.920;2022-09-09T06:29:00;20.40;99.90
3602;DHT22;1815;50.950;6.920;2022-09-09T06:31:30;20.40;99.90
3602;DHT22;1815;50.950;6.920;2022-09-09T06:34:00;20.50;99.90
3602;DHT22;1815;50.950;6.920;2022-09-09T06:36:33;20.50;99.90
3602;DHT22;1815;50.950;6.920;2022-09-09T06:39:00;20.50;99.90
3602;DHT22;1815;50.950;6.920;2022-09-09T06:41:28;20.60;99.90
3602;DHT22;1815;50.950;6.920;2022-09-09T06:43:56;20.70;99.90
3602;DHT22;1815;50.950;6.920;2022-09-09T06:46:31;20.70;99.90
3602;DHT22;1815;50.950;6.920;2022-09-09T06:48:59;20.70;99.90
3602;DHT22;1815;50.950;6.920;2022-09-09T06:51:31;20.80;99.90
3602;DHT22;1815;50.950;6.920;2022-09-09T06:53:58;20.90;99.90
3602;DHT22;1815;50.950;6.920;2022-09-09T06:56:25;21.20;99.90
3602;DHT22;1815;50.950;6.920;2022-09-09T06:58:55;21.90;99.90
3602;DHT22;1815;50.950;6.920;2022-09-09T07:01:27;22.70;99.90
3602;DHT22;1815;50.950;6.920;2022-09-09T07:03:57;23.60;99.90
3602;DHT22;1815;50.950;6.920;2022-09-09T07:06:33;24.40;99.90
3602;DHT22;1815;50.950;6.920;2022-09-09T07:09:07;25.40;99.90
3602;DHT22;1815;50.950;6.920;2022-09-09T07:11:47;26.20;99.90
3602;DHT22;1815;50.950;6.920;2022-09-09T07:14:15;27.00;99.90
3602;DHT22;1815;50.950;6.920;2022-09-09T07:16:45;27.90;99.90
3602;DHT22;1815;50.950;6.920;2022-09-09T07:19:13;28.70;99.90
3602;DHT22;1815;50.950;6.920;2022-09-09T07:21:41;29.50;99.90
3602;DHT22;1815;50.950;6.920;2022-09-09T07:24:08;30.00;99.90
3602;DHT22;1815;50.950;6.920;2022-09-09T07:26:37;30.50;99.20
3602;DHT22;1815;50.950;6.920;2022-09-09T07:29:03;30.70;96.10
3602;DHT22;1815;50.950;6.920;2022-09-09T07:31:32;31.00;95.50
3602;DHT22;1815;50.950;6.920;2022-09-09T07:33:59;31.60;94.90
3602;DHT22;1815;50.950;6.920;2022-09-09T07:36:31;32.30;94.20
3602;DHT22;1815;50.950;6.920;2022-09-09T07:39:05;33.00;92.70
3602;DHT22;1815;50.950;6.920;2022-09-09T07:41:42;33.70;90.80
3602;DHT22;1815;50.950;6.920;2022-09-09T07:44:10;34.30;87.50
3602;DHT22;1815;50.950;6.920;2022-09-09T07:46:38;34.50;79.40
3602;DHT22;1815;50.950;6.920;2022-09-09T07:49:09;34.30;78.50
3602;DHT22;1815;50.950;6.920;2022-09-09T07:51:39;34.40;75.40
3602;DHT22;1815;50.950;6.920;2022-09-09T07:54:09;34.60;74.50
3602;DHT22;1815;50.950;6.920;2022-09-09T07:56:37;34.80;72.40
3602;DHT22;1815;50.950;6.920;2022-09-09T07:59:03;34.60;68.80
3602;DHT22;1815;50.950;6.920;2022-09-09T08:01:41;34.10;67.10
3602;DHT22;1815;50.950;6.920;2022-09-09T08:04:10;33.60;65.00
3602;DHT22;1815;50.950;6.920;2022-09-09T08:06:42;33.10;64.60
3602;DHT22;1815;50.950;6.920;2022-09-09T08:09:09;32.40;64.60
3602;DHT22;1815;50.950;6.920;2022-09-09T08:11:37;31.90;64.50
3602;DHT22;1815;50.950;6.920;2022-09-09T08:14:03;31.30;64.00
3602;DHT22;1815;50.950;6.920;2022-09-09T08:16:32;30.60;63.90
3602;DHT22;1815;50.950;6.920;2022-09-09T08:18:59;30.00;63.70
3602;DHT22;1815;50.950;6.920;2022-09-09T08:21:27;29.20;64.00
3602;DHT22;1815;50.950;6.920;2022-09-09T08:23:57;28.60;64.40
3602;DHT22;1815;50.950;6.920;2022-09-09T08:26:26;28.10;65.30
3602;DHT22;1815;50.950;6.920;2022-09-09T08:28:54;27.60;66.30
3602;DHT22;1815;50.950;6.920;2022-09-09T08:31:30;27.20;67.10
3602;DHT22;1815;50.950;6.920;2022-09-09T08:33:58;26.90;68.00
3602;DHT22;1815;50.950;6.920;2022-09-09T08:36:31;26.60;69.30
3602;DHT22;1815;50.950;6.920;2022-09-09T08:38:59;26.60;70.10
3602;DHT22;1815;50.950;6.920;2022-09-09T08:44:50;26.50;70.30
3602;DHT22;1815;50.950;6.920;2022-09-09T08:47:32;26.90;72.10
3602;DHT22;1815;50.950;6.920;2022-09-09T08:50:22;27.50;72.40
3602;DHT22;1815;50.950;6.920;2022-09-09T08:53:04;27.70;70.40
3602;DHT22;1815;50.950;6.920;2022-09-09T08:55:54;27.80;68.20
3602;DHT22;1815;50.950;6.920;2022-09-09T08:58:52;27.60;66.60
3602;DHT22;1815;50.950;6.920;2022-09-09T09:01:59;27.60;68.00
3602;DHT22;1815;50.950;6.920;2022-09-09T09:10:33;28.00;69.80
3602;DHT22;1815;50.950;6.920;2022-09-09T09:13:15;28.50;70.90
3602;DHT22;1815;50.950;6.920;2022-09-09T09:15:49;28.80;69.40
3602;DHT22;1815;50.950;6.920;2022-09-09T09:18:17;28.80;67.90
3602;DHT22;1815;50.950;6.920;2022-09-09T09:21:12;28.80;67.10
3602;DHT22;1815;50.950;6.920;2022-09-09T09:24:01;28.60;66.30
3602;DHT22;1815;50.950;6.920;2022-09-09T09:26:35;28.40;66.70
3602;DHT22;1815;50.950;6.920;2022-09-09T09:29:13;28.20;65.60
3602;DHT22;1815;50.950;6.920;2022-09-09T09:31:51;27.90;64.80
3602;DHT22;1815;50.950;6.920;2022-09-09T09:34:18;27.50;65.00
3602;DHT22;1815;50.950;6.920;2022-09-09T09:36:52;27.10;64.90
3602;DHT22;1815;50.950;6.920;2022-09-09T09:39:36;26.80;65.30
3602;DHT22;1815;50.950;6.920;2022-09-09T09:42:23;26.50;65.80
3602;DHT22;1815;50.950;6.920;2022-09-09T09:44:51;26.20;66.70
3602;DHT22;1815;50.950;6.920;2022-09-09T09:47:21;26.10;67.50
3602;DHT22;1815;50.950;6.920;2022-09-09T09:50:17;26.00;68.20
3602;DHT22;1815;50.950;6.920;2022-09-09T09:53:00;25.90;68.70
3602;DHT22;1815;50.950;6.920;2022-09-09T09:55:31;25.80;69.10
3602;DHT22;1815;50.950;6.920;2022-09-09T09:58:06;25.70;69.50
3602;DHT22;1815;50.950;6.920;2022-09-09T10:00:48;25.70;70.00
3602;DHT22;1815;50.950;6.920;2022-09-09T10:05:49;25.60;70.50
3602;DHT22;1815;50.950;6.920;2022-09-09T10:08:16;25.70;71.10
3602;DHT22;1815;50.950;6.920;2022-09-09T10:13:52;25.80;71.10
3602;DHT22;1815;50.950;6.920;2022-09-09T10:19:38;25.80;70.50
3602;DHT22;1815;50.950;6.920;2022-09-09T10:22:27;25.60;69.90
3602;DHT22;1815;50.950;6.920;2022-09-09T10:30:29;25.30;70.20
3602;DHT22;1815;50.950;6.920;2022-09-09T10:38:42;25.10;71.30
3602;DHT22;1815;50.950;6.920;2022-09-09T10:47:32;25.80;74.40
3602;DHT22;1815;50.950;6.920;2022-09-09T10:55:35;26.90;72.10
3602;DHT22;1815;50.950;6.920;2022-09-09T10:58:03;27.30;73.70
3602;DHT22;1815;50.950;6.920;2022-09-09T11:00:37;27.80;74.40
3602;DHT22;1815;50.950;6.920;2022-09-09T11:03:04;28.30;74.00
3602;DHT22;1815;50.950;6.920;2022-09-09T11:05:43;28.80;72.50
3602;DHT22;1815;50.950;6.920;2022-09-09T11:08:12;29.20;69.20
3602;DHT22;1815;50.950;6.920;2022-09-09T11:10:53;29.50;69.30
3602;DHT22;1815;50.950;6.920;2022-09-09T11:18:47;29.60;64.90
3602;DHT22;1815;50.950;6.920;2022-09-09T11:21:24;29.60;63.70
3602;DHT22;1815;50.950;6.920;2022-09-09T11:24:02;29.50;62.20
3602;DHT22;1815;50.950;6.920;2022-09-09T11:26:41;29.20;61.40
3602;DHT22;1815;50.950;6.920;2022-09-09T11:32:40;28.60;61.10
3602;DHT22;1815;50.950;6.920;2022-09-09T11:40:32;27.60;61.30
3602;DHT22;1815;50.950;6.920;2022-09-09T11:43:05;27.30;61.90
3602;DHT22;1815;50.950;6.920;2022-09-09T11:45:35;27.10;62.10
3602;DHT22;1815;50.950;6.920;2022-09-09T11:48:02;27.00;62.40
3602;DHT22;1815;50.950;6.920;2022-09-09T11:50:36;26.80;62.60
3602;DHT22;1815;50.950;6.920;2022-09-09T11:53:23;26.70;62.90
3602;DHT22;1815;50.950;6.920;2022-09-09T11:56:05;26.60;62.70
3602;DHT22;1815;50.950;6.920;2022-09-09T11:58:37;26.50;62.90
3602;DHT22;1815;50.950;6.920;2022-09-09T12:01:30;26.40;62.80
3602;DHT22;1815;50.950;6.920;2022-09-09T12:07:24;26.20;63.20
3602;DHT22;1815;50.950;6.920;2022-09-09T12:10:19;26.10;63.70
3602;DHT22;1815;50.950;6.920;2022-09-09T12:12:46;26.00;63.60
3602;DHT22;1815;50.950;6.920;2022-09-09T12:17:43;25.70;63.60
3602;DHT22;1815;50.950;6.920;2022-09-09T12:28:10;25.30;64.80
3602;DHT22;1815;50.950;6.920;2022-09-09T12:30:59;25.40;65.20
3602;DHT22;1815;50.950;6.920;2022-09-09T12:33:37;25.40;65.60
3602;DHT22;1815;50.950;6.920;2022-09-09T12:36:05;25.50;65.70
3602;DHT22;1815;50.950;6.920;2022-09-09T12:38:38;25.60;65.90
3602;DHT22;1815;50.950;6.920;2022-09-09T12:41:04;25.60;65.60
3602;DHT22;1815;50.950;6.920;2022-09-09T12:43:31;25.70;65.80
3602;DHT22;1815;50.950;6.920;2022-09-09T12:46:07;25.70;65.50
3602;DHT22;1815;50.950;6.920;2022-09-09T12:48:39;25.60;65.50
3602;DHT22;1815;50.950;6.920;2022-09-09T12:51:25;25.50;65.30
3602;DHT22;1815;50.950;6.920;2022-09-09T12:53:52;25.40;65.50
3602;DHT22;1815;50.950;6.920;2022-09-09T12:56:23;25.30;65.90
3602;DHT22;1815;50.950;6.920;2022-09-09T12:58:53;25.40;66.60
3602;DHT22;1815;50.950;6.920;2022-09-09T13:01:31;25.50;67.70
3602;DHT22;1815;50.950;6.920;2022-09-09T13:03:58;25.60;68.60
3602;DHT22;1815;50.950;6.920;2022-09-09T13:06:29;25.80;68.90
3602;DHT22;1815;50.950;6.920;2022-09-09T13:08:59;26.00;69.20
3602;DHT22;1815;50.950;6.920;2022-09-09T13:11:30;26.00;69.10
3602;DHT22;1815;50.950;6.920;2022-09-09T13:13:58;26.10;69.30
3602;DHT22;1815;50.950;6.920;2022-09-09T13:16:32;26.00;68.90
3602;DHT22;1815;50.950;6.920;2022-09-09T13:19:08;25.90;69.20
3602;DHT22;1815;50.950;6.920;2022-09-09T13:21:37;25.90;69.90
3602;DHT22;1815;50.950;6.920;2022-09-09T13:24:28;25.90;70.00
3602;DHT22;1815;50.950;6.920;2022-09-09T13:26:59;25.80;70.30
3602;DHT22;1815;50.950;6.920;2022-09-09T13:29:28;25.80;70.20
3602;DHT22;1815;50.950;6.920;2022-09-09T13:32:06;25.80;70.70
3602;DHT22;1815;50.950;6.920;2022-09-09T13:34:38;25.70;69.20
3602;DHT22;1815;50.950;6.920;2022-09-09T13:37:05;25.70;69.20
3602;DHT22;1815;50.950;6.920;2022-09-09T13:39:36;25.70;69.60
3602;DHT22;1815;50.950;6.920;2022-09-09T13:42:03;25.80;69.40
3602;DHT22;1815;50.950;6.920;2022-09-09T13:44:32;25.80;69.20
3602;DHT22;1815;50.950;6.920;2022-09-09T13:47:02;25.80;69.10
3602;DHT22;1815;50.950;6.920;2022-09-09T13:49:29;25.80;69.10
3602;DHT22;1815;50.950;6.920;2022-09-09T13:52:13;25.80;69.60
3602;DHT22;1815;50.950;6.920;2022-09-09T13:54:39;25.80;70.60
3602;DHT22;1815;50.950;6.920;2022-09-09T13:57:14;25.90;69.70
3602;DHT22;1815;50.950;6.920;2022-09-09T13:59:40;25.90;69.60
3602;DHT22;1815;50.950;6.920;2022-09-09T14:02:07;25.90;69.30
3602;DHT22;1815;50.950;6.920;2022-09-09T14:04:33;25.90;68.90
3602;DHT22;1815;50.950;6.920;2022-09-09T14:07:01;25.80;68.70
3602;DHT22;1815;50.950;6.920;2022-09-09T14:09:28;25.70;68.60
3602;DHT22;1815;50.950;6.920;2022-09-09T14:11:53;25.70;69.10
3602;DHT22;1815;50.950;6.920;2022-09-09T14:14:20;25.50;69.10
3602;DHT22;1815;50.950;6.920;2022-09-09T14:16:46;25.40;69.30
3602;DHT22;1815;50.950;6.920;2022-09-09T14:19:12;25.30;70.00
3602;DHT22;1815;50.950;6.920;2022-09-09T14:21:38;25.20;71.00
3602;DHT22;1815;50.950;6.920;2022-09-09T14:24:04;25.00;72.00
3602;DHT22;1815;50.950;6.920;2022-09-09T14:26:30;24.80;72.40
3602;DHT22;1815;50.950;6.920;2022-09-09T14:28:56;24.70;73.20
3602;DHT22;1815;50.950;6.920;2022-09-09T14:31:25;24.40;73.90
3602;DHT22;1815;50.950;6.920;2022-09-09T14:33:51;24.20;76.60
3602;DHT22;1815;50.950;6.920;2022-09-09T14:36:17;23.90;76.40
3602;DHT22;1815;50.950;6.920;2022-09-09T14:38:42;23.60;78.20
3602;DHT22;1815;50.950;6.920;2022-09-09T14:41:13;23.40;79.70
3602;DHT22;1815;50.950;6.920;2022-09-09T14:43:43;23.10;82.00
3602;DHT22;1815;50.950;6.920;2022-09-09T14:46:14;22.80;81.70
3602;DHT22;1815;50.950;6.920;2022-09-09T14:48:40;22.50;83.90
3602;DHT22;1815;50.950;6.920;2022-09-09T14:51:12;22.30;84.30
3602;DHT22;1815;50.950;6.920;2022-09-09T14:53:39;22.10;86.20
3602;DHT22;1815;50.950;6.920;2022-09-09T14:56:06;21.90;86.90
3602;DHT22;1815;50.950;6.920;2022-09-09T14:58:32;21.80;88.10
3602;DHT22;1815;50.950;6.920;2022-09-09T15:01:10;21.70;89.30
3602;DHT22;1815;50.950;6.920;2022-09-09T15:03:36;21.70;90.90
3602;DHT22;1815;50.950;6.920;2022-09-09T15:06:22;21.70;91.20
3602;DHT22;1815;50.950;6.920;2022-09-09T15:08:50;21.80;92.60
3602;DHT22;1815;50.950;6.920;2022-09-09T15:11:16;21.80;92.60
3602;DHT22;1815;50.950;6.920;2022-09-09T15:13:42;21.90;93.00
3602;DHT22;1815;50.950;6.920;2022-09-09T15:16:16;22.00;93.50
3602;DHT22;1815;50.950;6.920;2022-09-09T15:18:42;22.10;94.10
3602;DHT22;1815;50.950;6.920;2022-09-09T15:21:15;22.20;94.20
3602;DHT22;1815;50.950;6.920;2022-09-09T15:23:42;22.30;94.70
3602;DHT22;1815;50.950;6.920;2022-09-09T15:26:08;22.40;94.90
3602;DHT22;1815;50.950;6.920;2022-09-09T15:28:36;22.50;95.00
3602;DHT22;1815;50.950;6.920;2022-09-09T15:31:23;22.50;95.30
3602;DHT22;1815;50.950;6.920;2022-09-09T15:33:53;22.60;96.00
3602;DHT22;1815;50.950;6.920;2022-09-09T15:36:24;22.60;96.10
3602;DHT22;1815;50.950;6.920;2022-09-09T15:38:51;22.70;96.70
3602;DHT22;1815;50.950;6.920;2022-09-09T15:41:18;22.70;96.60
3602;DHT22;1815;50.950;6.920;2022-09-09T15:43:45;22.70;96.70
3602;DHT22;1815;50.950;6.920;2022-09-09T15:46:36;22.70;96.70
3602;DHT22;1815;50.950;6.920;2022-09-09T15:49:05;22.60;96.90
3602;DHT22;1815;50.950;6.920;2022-09-09T15:51:32;22.60;97.00
3602;DHT22;1815;50.950;6.920;2022-09-09T15:53:58;22.70;97.30
3602;DHT22;1815;50.950;6.920;2022-09-09T15:56:26;22.70;97.80
3602;DHT22;1815;50.950;6.920;2022-09-09T15:58:54;22.70;98.10
3602;DHT22;1815;50.950;6.920;2022-09-09T16:01:20;22.70;98.30
3602;DHT22;1815;50.950;6.920;2022-09-09T16:03:46;22.70;98.50
3602;DHT22;1815;50.950;6.920;2022-09-09T16:06:14;22.70;98.60
3602;DHT22;1815;50.950;6.920;2022-09-09T16:08:42;22.70;98.60
3602;DHT22;1815;50.950;6.920;2022-09-09T16:11:10;22.70;98.60
3602;DHT22;1815;50.950;6.920;2022-09-09T16:13:38;22.60;98.60
3602;DHT22;1815;50.950;6.920;2022-09-09T16:16:08;22.60;98.60
3602;DHT22;1815;50.950;6.920;2022-09-09T16:18:41;22.60;98.60
3602;DHT22;1815;50.950;6.920;2022-09-09T16:21:08;22.60;98.80
3602;DHT22;1815;50.950;6.920;2022-09-09T16:23:38;22.60;98.80
3602;DHT22;1815;50.950;6.920;2022-09-09T16:26:04;22.50;98.80
3602;DHT22;1815;50.950;6.920;2022-09-09T16:28:30;22.50;98.90
3602;DHT22;1815;50.950;6.920;2022-09-09T16:30:57;22.40;99.00
3602;DHT22;1815;50.950;6.920;2022-09-09T16:33:24;22.40;99.20
3602;DHT22;1815;50.950;6.920;2022-09-09T16:35:51;22.40;99.50
3602;DHT22;1815;50.950;6.920;2022-09-09T16:38:17;22.30;99.60
3602;DHT22;1815;50.950;6.920;2022-09-09T16:40:42;22.30;99.70
3602;DHT22;1815;50.950;6.920;2022-09-09T16:43:08;22.30;99.90
3602;DHT22;1815;50.950;6.920;2022-09-09T16:45:44;22.30;99.90
3602;DHT22;1815;50.950;6.920;2022-09-09T16:48:11;22.20;99.90
3602;DHT22;1815;50.950;6.920;2022-09-09T16:50:37;22.20;99.90
3602;DHT22;1815;50.950;6.920;2022-09-09T16:53:04;22.20;99.90
3602;DHT22;1815;50.950;6.920;2022-09-09T16:55:38;22.30;99.90
3602;DHT22;1815;50.950;6.920;2022-09-09T16:58:05;22.20;99.90
3602;DHT22;1815;50.950;6.920;2022-09-09T17:00:31;22.10;99.90
3602;DHT22;1815;50.950;6.920;2022-09-09T17:02:56;22.10;99.90
3602;DHT22;1815;50.950;6.920;2022-09-09T17:05:22;22.10;99.90
3602;DHT22;1815;50.950;6.920;2022-09-09T17:07:48;22.10;99.90
3602;DHT22;1815;50.950;6.920;2022-09-09T17:10:14;22.10;99.90
3602;DHT22;1815;50.950;6.920;2022-09-09T17:12:40;22.00;99.90
3602;DHT22;1815;50.950;6.920;2022-09-09T17:15:07;22.00;99.90
3602;DHT22;1815;50.950;6.920;2022-09-09T17:17:32;22.00;99.90
3602;DHT22;1815;50.950;6.920;2022-09-09T17:19:58;21.90;99.90
3602;DHT22;1815;50.950;6.920;2022-09-09T17:22:24;21.80;99.90
3602;DHT22;1815;50.950;6.920;2022-09-09T17:24:51;21.70;99.90
3602;DHT22;1815;50.950;6.920;2022-09-09T17:27:17;21.70;99.90
3602;DHT22;1815;50.950;6.920;2022-09-09T17:29:43;21.60;99.90
3602;DHT22;1815;50.950;6.920;2022-09-09T17:32:08;21.60;99.90
3602;DHT22;1815;50.950;6.920;2022-09-09T17:34:35;21.50;99.90
3602;DHT22;1815;50.950;6.920;2022-09-09T17:37:00;21.50;99.90
3602;DHT22;1815;50.950;6.920;2022-09-09T17:39:26;21.50;99.90
3602;DHT22;1815;50.950;6.920;2022-09-09T17:41:52;21.40;99.90
3602;DHT22;1815;50.950;6.920;2022-09-09T17:44:18;21.30;99.90
3602;DHT22;1815;50.950;6.920;2022-09-09T17:46:45;21.30;99.90
3602;DHT22;1815;50.950;6.920;2022-09-09T17:49:13;21.20;99.90
3602;DHT22;1815;50.950;6.920;2022-09-09T17:51:40;21.20;99.90
3602;DHT22;1815;50.950;6.920;2022-09-09T17:54:09;21.10;99.90
3602;DHT22;1815;50.950;6.920;2022-09-09T17:56:36;21.10;99.90
3602;DHT22;1815;50.950;6.920;2022-09-09T17:59:04;21.10;99.90
3602;DHT22;1815;50.950;6.920;2022-09-09T18:01:32;21.10;99.90
3602;DHT22;1815;50.950;6.920;2022-09-09T18:04:01;21.10;99.90
3602;DHT22;1815;50.950;6.920;2022-09-09T18:06:31;21.00;99.90
3602;DHT22;1815;50.950;6.920;2022-09-09T18:09:01;21.00;99.90
3602;DHT22;1815;50.950;6.920;2022-09-09T18:11:30;21.00;99.90
3602;DHT22;1815;50.950;6.920;2022-09-09T18:13:58;21.00;99.90
3602;DHT22;1815;50.950;6.920;2022-09-09T18:16:25;21.00;99.90
3602;DHT22;1815;50.950;6.920;2022-09-09T18:18:53;20.90;99.90
3602;DHT22;1815;50.950;6.920;2022-09-09T18:21:19;20.90;99.90